VLI368 MMHO-MMTJ
Flight info
| Callsign | VLI368 |
|---|---|
| Flight time | N/A |
| Altitude | 32000 |
| Route | OTUBO4B OTUBO UT18 TIJ |
| Aircraft | B733/M-SDE2E3FHIRW/S |
Departure
| Time | 2026-05-07 02:50 |
|---|---|
| Airport | General Ignacio L. Pesqueira International Airport (MMHO) |
Arrival
| Time | N/A |
|---|---|
| Airport | General Abelardo L. Rodriguez International Airport (MMTJ) |
| Time | Latitude | Longitude | Altitude | Speed | Heading |
|---|---|---|---|---|---|
| 2026-05-07 02:14 | 29.09072 | -111.05233 | 633 ft | 0 kts | 150° |
| 2026-05-07 02:36 | 29.09082 | -111.05241 | 633 ft | 2 kts | 148° |
| 2026-05-07 02:36 | 29.09095 | -111.05249 | 633 ft | 2 kts | 149° |
| 2026-05-07 02:37 | 29.09107 | -111.05258 | 633 ft | 2 kts | 148° |
| 2026-05-07 02:37 | 29.09120 | -111.05266 | 633 ft | 1 kts | 138° |
| 2026-05-07 02:37 | 29.09123 | -111.05283 | 633 ft | 2 kts | 61° |
| 2026-05-07 02:37 | 29.09114 | -111.05297 | 633 ft | 2 kts | 61° |
| 2026-05-07 02:38 | 29.09109 | -111.05307 | 633 ft | 0 kts | 58° |
| 2026-05-07 02:38 | 29.09108 | -111.05308 | 633 ft | 0 kts | 58° |
| 2026-05-07 02:42 | 29.09109 | -111.05306 | 633 ft | 0 kts | 58° |
| 2026-05-07 02:42 | 29.09115 | -111.05296 | 633 ft | 2 kts | 58° |
| 2026-05-07 02:43 | 29.09127 | -111.05273 | 633 ft | 3 kts | 59° |
| 2026-05-07 02:43 | 29.09144 | -111.05241 | 633 ft | 5 kts | 59° |
| 2026-05-07 02:43 | 29.09167 | -111.05196 | 633 ft | 6 kts | 59° |
| 2026-05-07 02:43 | 29.09196 | -111.05143 | 633 ft | 8 kts | 58° |
| 2026-05-07 02:44 | 29.09230 | -111.05080 | 633 ft | 9 kts | 58° |
| 2026-05-07 02:44 | 29.09263 | -111.05018 | 633 ft | 8 kts | 59° |
| 2026-05-07 02:44 | 29.09296 | -111.04954 | 633 ft | 9 kts | 59° |
| 2026-05-07 02:44 | 29.09331 | -111.04890 | 633 ft | 9 kts | 58° |
| 2026-05-07 02:45 | 29.09364 | -111.04825 | 633 ft | 9 kts | 66° |
| 2026-05-07 02:45 | 29.09370 | -111.04740 | 633 ft | 11 kts | 94° |
| 2026-05-07 02:45 | 29.09365 | -111.04664 | 633 ft | 6 kts | 93° |
| 2026-05-07 02:45 | 29.09385 | -111.04613 | 633 ft | 8 kts | 45° |
| 2026-05-07 02:46 | 29.09431 | -111.04563 | 633 ft | 9 kts | 46° |
| 2026-05-07 02:46 | 29.09475 | -111.04497 | 633 ft | 10 kts | 54° |
| 2026-05-07 02:46 | 29.09522 | -111.04421 | 633 ft | 12 kts | 54° |
| 2026-05-07 02:46 | 29.09574 | -111.04340 | 633 ft | 13 kts | 54° |
| 2026-05-07 02:47 | 29.09631 | -111.04250 | 633 ft | 12 kts | 54° |
| 2026-05-07 02:47 | 29.09670 | -111.04188 | 633 ft | 9 kts | 54° |
| 2026-05-07 02:47 | 29.09717 | -111.04155 | 633 ft | 7 kts | 4° |
| 2026-05-07 02:47 | 29.09757 | -111.04176 | 633 ft | 3 kts | 327° |
| 2026-05-07 02:48 | 29.09771 | -111.04185 | 633 ft | 3 kts | 328° |
| 2026-05-07 02:48 | 29.09794 | -111.04202 | 633 ft | 4 kts | 329° |
| 2026-05-07 02:48 | 29.09825 | -111.04223 | 633 ft | 5 kts | 329° |
| 2026-05-07 02:48 | 29.09859 | -111.04253 | 633 ft | 6 kts | 283° |
| 2026-05-07 02:49 | 29.09840 | -111.04304 | 633 ft | 7 kts | 238° |
| 2026-05-07 02:49 | 29.09804 | -111.04370 | 633 ft | 15 kts | 238° |
| 2026-05-07 02:49 | 29.09593 | -111.04766 | 633 ft | 99 kts | 238° |
| 2026-05-07 02:49 | 29.09097 | -111.05688 | 655 ft | 164 kts | 239° |
| 2026-05-07 02:50 | 29.08423 | -111.06937 | 967 ft | 198 kts | 239° |
| 2026-05-07 02:50 | 29.07700 | -111.08332 | 1681 ft | 211 kts | 240° |
| 2026-05-07 02:50 | 29.06883 | -111.09759 | 2402 ft | 217 kts | 237° |
| 2026-05-07 02:50 | 29.06019 | -111.11188 | 2926 ft | 223 kts | 237° |
| 2026-05-07 02:51 | 29.05065 | -111.12728 | 3135 ft | 245 kts | 236° |
| 2026-05-07 02:51 | 29.04744 | -111.13257 | 3241 ft | 250 kts | 236° |